Kingman, Indiana
Current Conditions -  °F | °C
As of 6:55 AM on Sunday 21 Dec 2014 (Local Time) from KDNV Reporting Station
Overcast Overcast  
Wind Chill: 22°   Ceiling: 3500
Heat Index: 29°   Visibility: 7mi
Dew Point: 26°   Wind: 7mph
Humidity: 90%   Direction: 150°SSE
Pressure: 30.23"   Gusts: NA
Location:  39.97°N, 87.28°W
Report Text: KDNV 211155Z AUTO 15006KT 7SM OVC035 M02/M03 A3023 RMK AO2 T10171031 11013 21022
Loading
Personal Weather Stations






























Interactive Weather Map New forecast layout! Learn more

10-Day Weather Forecast

Advertisements
Track Severe Weather on mobile